createdAt,value
2017-05-22T00:01:00.068Z,71.50
2017-05-22T00:03:29.034Z,71.50
2017-05-22T00:05:58.347Z,71.80
2017-05-22T00:08:27.298Z,73.00
2017-05-22T00:10:56.353Z,72.30
2017-05-22T00:13:25.776Z,73.60
2017-05-22T00:15:54.751Z,72.30
2017-05-22T00:18:23.734Z,72.70
2017-05-22T00:20:53.027Z,72.60
2017-05-22T00:23:21.997Z,72.70
2017-05-22T00:25:50.992Z,71.40
2017-05-22T00:28:20.350Z,72.20
2017-05-22T00:30:49.298Z,72.50
2017-05-22T00:33:18.247Z,72.20
2017-05-22T00:35:47.547Z,71.90
2017-05-22T00:38:16.522Z,71.80
2017-05-22T00:40:45.483Z,70.80
2017-05-22T00:43:14.834Z,71.20
2017-05-22T00:45:43.817Z,70.70
2017-05-22T00:48:12.819Z,71.90
2017-05-22T00:50:42.299Z,70.60
2017-05-22T00:53:11.267Z,70.60
2017-05-22T00:55:40.229Z,71.30
2017-05-22T00:58:09.586Z,71.50
2017-05-22T01:00:38.573Z,71.90
2017-05-22T01:03:07.537Z,72.40
2017-05-22T01:05:36.919Z,73.00
2017-05-22T01:08:05.883Z,72.90
2017-05-22T01:10:34.857Z,72.80
2017-05-22T01:13:04.249Z,72.10
2017-05-22T01:15:33.187Z,72.60
2017-05-22T01:18:02.290Z,72.60
2017-05-22T01:20:31.636Z,72.50
2017-05-22T01:23:00.586Z,72.30
2017-05-22T01:25:29.554Z,72.60
2017-05-22T01:27:58.922Z,72.10
2017-05-22T01:30:27.871Z,72.20
2017-05-22T01:32:56.835Z,70.90
2017-05-22T01:35:26.297Z,70.90
2017-05-22T01:37:55.277Z,71.30
2017-05-22T01:40:24.214Z,71.20
2017-05-22T01:42:53.584Z,71.30
2017-05-22T01:45:22.547Z,71.30
2017-05-22T01:47:51.535Z,72.00
2017-05-22T01:50:20.875Z,70.70
2017-05-22T01:52:49.848Z,72.10
2017-05-22T01:55:18.863Z,71.60
2017-05-22T01:57:47.639Z,71.60
2017-05-22T02:00:16.600Z,71.50
2017-05-22T02:02:45.562Z,72.60
2017-05-22T02:05:14.930Z,72.00
2017-05-22T02:07:44.077Z,72.50
2017-05-22T02:10:13.042Z,71.50
2017-05-22T02:12:42.342Z,71.60
2017-05-22T02:15:11.299Z,71.90
2017-05-22T02:17:40.251Z,72.60
2017-05-22T02:20:09.649Z,72.20
2017-05-22T02:22:38.599Z,72.50
2017-05-22T02:25:07.557Z,72.60
2017-05-22T02:27:36.092Z,72.60
2017-05-22T02:30:05.063Z,73.30
2017-05-22T02:32:33.263Z,73.20
2017-05-22T02:35:02.715Z,73.20
2017-05-22T02:37:31.673Z,73.30
2017-05-22T02:40:00.655Z,74.10
2017-05-22T02:42:30.102Z,73.60
2017-05-22T02:44:59.066Z,74.10
2017-05-22T02:47:28.022Z,72.30
2017-05-22T02:49:57.463Z,73.00
2017-05-22T02:52:26.437Z,71.90
2017-05-22T02:54:55.395Z,73.00
2017-05-22T02:57:24.686Z,73.70
2017-05-22T02:59:53.710Z,73.30
2017-05-22T03:02:22.668Z,73.20
2017-05-22T03:04:52.068Z,72.80
2017-05-22T03:07:21.086Z,73.00
2017-05-22T03:09:50.045Z,72.50
2017-05-22T03:12:19.445Z,73.20
2017-05-22T03:14:48.409Z,74.00
2017-05-22T03:17:17.331Z,72.80
2017-05-22T03:19:46.826Z,72.10
2017-05-22T03:22:15.778Z,72.20
2017-05-22T03:24:44.748Z,72.60
2017-05-22T03:27:14.057Z,72.70
2017-05-22T03:29:43.046Z,73.20
2017-05-22T03:32:12.057Z,73.30
2017-05-22T03:34:41.386Z,73.30
2017-05-22T03:37:10.335Z,72.80
2017-05-22T03:39:39.346Z,72.50
2017-05-22T03:42:08.633Z,72.00
2017-05-22T03:44:37.603Z,71.80
2017-05-22T03:47:06.564Z,72.00
2017-05-22T03:49:35.974Z,74.00
2017-05-22T03:52:04.920Z,73.00
2017-05-22T03:54:33.860Z,72.10
2017-05-22T03:57:03.255Z,71.70
2017-05-22T03:59:32.256Z,71.50
2017-05-22T04:02:01.207Z,71.40
2017-05-22T04:04:30.569Z,73.00
2017-05-22T04:06:59.710Z,72.30
2017-05-22T04:09:28.666Z,70.50
2017-05-22T04:11:58.131Z,71.20
2017-05-22T04:14:27.141Z,72.20
2017-05-22T04:16:56.204Z,70.80
2017-05-22T04:19:25.623Z,70.90
2017-05-22T04:21:54.580Z,71.00
2017-05-22T04:24:23.550Z,71.00
2017-05-22T04:26:52.927Z,70.40
2017-05-22T04:29:21.934Z,69.70
2017-05-22T04:31:50.871Z,69.00
2017-05-22T04:34:20.189Z,68.80
2017-05-22T04:36:49.179Z,68.10
2017-05-22T04:39:18.155Z,67.80
2017-05-22T04:41:47.553Z,67.00
2017-05-22T04:44:16.519Z,68.20
2017-05-22T04:46:45.469Z,67.20
2017-05-22T04:49:14.846Z,66.40
2017-05-22T04:51:43.802Z,66.40
2017-05-22T04:54:12.796Z,66.50
2017-05-22T04:56:42.136Z,65.00
2017-05-22T04:59:11.107Z,64.40
2017-05-22T05:01:40.053Z,65.60
2017-05-22T05:04:09.419Z,66.00
2017-05-22T05:06:38.371Z,64.80
2017-05-22T05:09:07.331Z,64.80
2017-05-22T05:11:36.622Z,64.60
2017-05-22T05:14:05.706Z,63.70
2017-05-22T05:16:34.667Z,63.50
2017-05-22T05:19:03.983Z,62.90
2017-05-22T05:21:32.987Z,61.70
2017-05-22T05:24:02.064Z,61.30
2017-05-22T05:26:31.506Z,60.90
2017-05-22T05:29:00.461Z,59.60
2017-05-22T05:31:29.427Z,60.10
2017-05-22T05:33:58.866Z,57.50
2017-05-22T05:36:27.822Z,58.30
2017-05-22T05:38:56.769Z,56.90
2017-05-22T05:41:26.150Z,55.80
2017-05-22T05:43:55.113Z,54.40
2017-05-22T05:46:24.193Z,55.80
2017-05-22T05:48:53.508Z,55.60
2017-05-22T05:51:22.447Z,56.50
2017-05-22T05:53:51.462Z,55.90
2017-05-22T05:56:20.106Z,55.80
2017-05-22T05:58:49.084Z,56.80
2017-05-22T06:01:18.035Z,57.80
2017-05-22T06:03:47.378Z,56.90
2017-05-22T06:06:16.394Z,56.60
2017-05-22T06:08:45.349Z,54.70
2017-05-22T06:11:14.749Z,51.90
2017-05-22T06:13:43.686Z,51.70
2017-05-22T06:16:13.042Z,51.60
2017-05-22T06:18:42.451Z,51.60
2017-05-22T06:21:11.419Z,51.40
2017-05-22T06:23:40.379Z,50.70
2017-05-22T06:26:09.843Z,50.70
2017-05-22T06:28:38.812Z,51.40
2017-05-22T06:31:08.331Z,50.30
2017-05-22T06:33:37.756Z,51.90
2017-05-22T06:36:06.718Z,50.70
2017-05-22T06:38:35.674Z,50.30
2017-05-22T06:41:04.975Z,51.30
2017-05-22T06:43:34.017Z,52.50
2017-05-22T06:46:03.035Z,52.80
2017-05-22T06:48:32.423Z,52.90
2017-05-22T06:51:01.415Z,53.30
2017-05-22T06:53:30.384Z,53.50
2017-05-22T06:55:59.872Z,54.30
2017-05-22T06:58:28.823Z,55.00
2017-05-22T07:00:57.788Z,53.40
2017-05-22T07:03:27.101Z,53.60
2017-05-22T07:05:56.099Z,54.90
2017-05-22T07:08:25.135Z,55.60
2017-05-22T07:10:54.776Z,53.10
2017-05-22T07:13:23.775Z,52.90
2017-05-22T07:15:52.731Z,53.30
2017-05-22T07:18:22.092Z,54.50
2017-05-22T07:20:51.042Z,52.60
2017-05-22T07:23:20.007Z,51.30
2017-05-22T07:25:49.658Z,51.90
2017-05-22T07:28:18.637Z,52.50
2017-05-22T07:30:47.642Z,53.20
2017-05-22T07:33:16.970Z,51.30
2017-05-22T07:35:46.038Z,50.30
2017-05-22T07:38:15.083Z,50.70
2017-05-22T07:40:44.380Z,52.40
2017-05-22T07:43:13.349Z,51.10
2017-05-22T07:45:42.335Z,50.50
2017-05-22T07:48:11.716Z,52.10
2017-05-22T07:50:40.674Z,51.70
2017-05-22T07:53:09.650Z,51.10
2017-05-22T07:55:39.011Z,49.90
2017-05-22T07:58:08.111Z,50.10
2017-05-22T08:00:37.086Z,51.10
2017-05-22T08:03:06.467Z,49.20
2017-05-22T08:05:35.443Z,48.90
2017-05-22T08:08:04.440Z,49.20
2017-05-22T08:10:33.961Z,51.20
2017-05-22T08:13:02.951Z,49.30
2017-05-22T08:15:32.127Z,50.30
2017-05-22T08:18:01.558Z,49.40
2017-05-22T08:20:30.521Z,51.00
2017-05-22T08:22:59.498Z,48.30
2017-05-22T08:25:28.898Z,47.20
2017-05-22T08:27:57.860Z,46.30
2017-05-22T08:30:26.831Z,45.00
2017-05-22T08:32:56.388Z,44.20
2017-05-22T08:35:25.357Z,43.70
2017-05-22T08:37:54.345Z,43.80
2017-05-22T08:40:23.832Z,45.70
2017-05-22T08:42:52.807Z,46.10
2017-05-22T08:45:21.842Z,44.20
2017-05-22T08:47:51.223Z,44.70
2017-05-22T08:50:20.222Z,41.80
2017-05-22T08:52:49.220Z,44.30
2017-05-22T08:55:18.677Z,44.00
2017-05-22T08:57:47.646Z,43.30
2017-05-22T09:00:16.611Z,42.70
2017-05-22T09:02:45.947Z,40.80
2017-05-22T09:05:14.964Z,40.60
2017-05-22T09:07:43.924Z,39.40
2017-05-22T09:10:13.335Z,38.30
2017-05-22T09:12:42.314Z,40.40
2017-05-22T09:15:11.288Z,39.00
2017-05-22T09:17:40.773Z,41.10
2017-05-22T09:20:09.815Z,39.10
2017-05-22T09:22:38.780Z,40.80
2017-05-22T09:25:08.225Z,38.00
2017-05-22T09:27:37.225Z,37.50
2017-05-22T09:30:06.243Z,37.90
2017-05-22T09:32:35.716Z,40.00
2017-05-22T09:35:04.693Z,41.30
2017-05-22T09:37:33.650Z,38.80
2017-05-22T09:40:02.966Z,39.60
2017-05-22T09:42:31.901Z,39.10
2017-05-22T09:45:00.863Z,35.40
2017-05-22T09:47:30.405Z,37.40
2017-05-22T09:49:59.390Z,37.60
2017-05-22T09:52:28.355Z,35.20
2017-05-22T09:54:57.910Z,28.90
2017-05-22T09:57:26.897Z,30.90
2017-05-22T09:59:55.836Z,31.80
2017-05-22T10:02:25.240Z,28.40
2017-05-22T10:04:54.195Z,28.40
2017-05-22T10:07:23.170Z,30.10
2017-05-22T10:09:52.705Z,31.10
2017-05-22T10:12:21.676Z,33.10
2017-05-22T10:14:50.650Z,31.80
2017-05-22T10:17:20.020Z,30.60
2017-05-22T10:19:49.049Z,31.30
2017-05-22T10:22:18.046Z,30.40
2017-05-22T10:24:47.504Z,31.30
2017-05-22T10:27:16.528Z,29.80
2017-05-22T10:29:45.499Z,30.70
2017-05-22T10:32:14.887Z,30.10
2017-05-22T10:34:43.913Z,32.40
2017-05-22T10:37:12.964Z,31.90
2017-05-22T10:39:42.406Z,32.20
2017-05-22T10:42:11.366Z,31.80
2017-05-22T10:44:40.545Z,32.70
2017-05-22T10:47:09.878Z,30.00
2017-05-22T10:49:38.829Z,31.00
2017-05-22T10:52:07.862Z,30.60
2017-05-22T10:54:37.261Z,31.00
2017-05-22T10:57:06.225Z,30.20
2017-05-22T10:59:35.176Z,30.40
2017-05-22T11:02:04.501Z,30.40
2017-05-22T11:04:33.470Z,33.00
2017-05-22T11:07:02.488Z,33.30
2017-05-22T11:09:31.856Z,32.20
2017-05-22T11:12:00.889Z,31.90
2017-05-22T11:14:29.846Z,32.90
2017-05-22T11:16:59.201Z,32.40
2017-05-22T11:19:28.161Z,32.60
2017-05-22T11:21:57.139Z,30.30
2017-05-22T11:24:26.495Z,32.00
2017-05-22T11:26:56.379Z,32.30
2017-05-22T11:29:25.375Z,33.10
2017-05-22T11:31:54.705Z,30.40
2017-05-22T11:34:23.712Z,30.30
2017-05-22T11:36:52.713Z,29.90
2017-05-22T11:39:22.100Z,30.60
2017-05-22T11:41:51.061Z,31.00
2017-05-22T11:44:20.020Z,30.30
2017-05-22T11:46:49.364Z,32.40
2017-05-22T11:49:18.320Z,30.20
2017-05-22T11:51:47.290Z,30.20
2017-05-22T11:54:16.700Z,32.10
2017-05-22T11:56:45.691Z,31.60
2017-05-22T11:59:14.670Z,31.00
2017-05-22T12:01:44.006Z,28.90
2017-05-22T12:04:12.968Z,28.70
2017-05-22T12:06:41.918Z,28.60
2017-05-22T12:09:11.338Z,28.30
2017-05-22T12:11:40.344Z,29.10
2017-05-22T12:14:09.317Z,29.60
2017-05-22T12:16:38.627Z,30.40
2017-05-22T12:19:07.579Z,29.80
2017-05-22T12:21:36.538Z,30.40
2017-05-22T12:24:06.014Z,29.60
2017-05-22T12:26:34.977Z,30.30
2017-05-22T12:29:03.966Z,29.30
2017-05-22T12:31:33.378Z,29.70
2017-05-22T12:34:02.360Z,30.50
2017-05-22T12:36:31.336Z,30.60
2017-05-22T12:39:00.650Z,30.20
2017-05-22T12:41:29.906Z,30.00
2017-05-22T12:43:58.884Z,28.00
2017-05-22T12:46:28.263Z,28.60
2017-05-22T12:48:57.254Z,30.00
2017-05-22T12:51:26.254Z,29.60
2017-05-22T12:53:55.632Z,28.60
2017-05-22T12:56:24.646Z,29.00
2017-05-22T12:58:53.599Z,30.00
2017-05-22T13:01:23.033Z,28.80
2017-05-22T13:03:52.023Z,30.10
2017-05-22T13:06:20.992Z,29.10
2017-05-22T13:08:50.416Z,29.20
2017-05-22T13:11:18.635Z,29.20
2017-05-22T13:13:47.603Z,29.40
2017-05-22T13:16:16.980Z,30.00
2017-05-22T13:18:46.052Z,29.00
2017-05-22T13:21:15.039Z,29.10
2017-05-22T13:23:44.573Z,29.40
2017-05-22T13:26:13.539Z,30.40
2017-05-22T13:28:42.510Z,30.00
2017-05-22T13:31:11.864Z,31.80
2017-05-22T13:33:40.863Z,31.60
2017-05-22T13:36:09.889Z,30.90
2017-05-22T13:38:39.205Z,29.90
2017-05-22T13:41:08.173Z,32.00
2017-05-22T13:43:37.142Z,32.20
2017-05-22T13:46:06.519Z,31.90
2017-05-22T13:48:35.502Z,32.20
2017-05-22T13:51:04.456Z,32.30
2017-05-22T13:53:33.787Z,33.60
2017-05-22T13:56:02.759Z,33.00
2017-05-22T13:58:31.837Z,33.60
2017-05-22T14:01:01.185Z,32.80
2017-05-22T14:03:30.282Z,33.30
2017-05-22T14:05:59.246Z,32.10
2017-05-22T14:08:28.598Z,31.60
2017-05-22T14:10:57.643Z,32.70
2017-05-22T14:13:26.630Z,31.00
2017-05-22T14:15:56.098Z,30.50
2017-05-22T14:18:25.105Z,31.80
2017-05-22T14:20:54.090Z,30.80
2017-05-22T14:23:23.446Z,30.60
2017-05-22T14:25:52.418Z,31.30
2017-05-22T14:28:21.380Z,30.70
2017-05-22T14:30:50.750Z,31.20
2017-05-22T14:33:19.724Z,32.40
2017-05-22T14:35:48.715Z,30.70
2017-05-22T14:38:18.107Z,30.00
2017-05-22T14:40:47.104Z,29.70
2017-05-22T14:43:16.056Z,31.20
2017-05-22T14:45:46.206Z,31.00
2017-05-22T14:48:15.169Z,31.20
2017-05-22T14:50:44.132Z,30.60
2017-05-22T14:53:13.495Z,30.60
2017-05-22T14:55:42.490Z,30.20
2017-05-22T14:58:11.469Z,30.20
2017-05-22T15:00:40.886Z,31.30
2017-05-22T15:03:09.849Z,31.70
2017-05-22T15:05:38.851Z,34.00
2017-05-22T15:08:08.656Z,31.70
2017-05-22T15:10:37.719Z,31.50
2017-05-22T15:13:06.696Z,32.20
2017-05-22T15:15:36.071Z,32.70
2017-05-22T15:18:05.062Z,32.10
2017-05-22T15:20:34.239Z,30.60
2017-05-22T15:23:03.735Z,30.80
2017-05-22T15:25:32.719Z,31.80
2017-05-22T15:28:01.711Z,31.80
2017-05-22T15:30:31.099Z,33.50
2017-05-22T15:33:00.077Z,34.20
2017-05-22T15:35:29.035Z,33.50
2017-05-22T15:37:58.508Z,32.20
2017-05-22T15:40:27.470Z,31.50
2017-05-22T15:42:56.462Z,32.40
2017-05-22T15:45:25.092Z,32.40
2017-05-22T15:47:54.056Z,32.80
2017-05-22T15:50:23.046Z,33.50
2017-05-22T15:52:52.533Z,33.60
2017-05-22T15:55:21.638Z,35.20
2017-05-22T15:57:50.618Z,32.40
2017-05-22T16:00:20.079Z,33.70
2017-05-22T16:02:49.055Z,33.50
2017-05-22T16:05:18.035Z,33.70
2017-05-22T16:07:47.483Z,33.10
2017-05-22T16:10:16.442Z,33.70
2017-05-22T16:12:45.407Z,33.70
2017-05-22T16:15:14.713Z,33.40
2017-05-22T16:17:43.692Z,33.60
2017-05-22T16:20:12.676Z,33.40
2017-05-22T16:22:41.992Z,33.50
2017-05-22T16:25:11.059Z,34.10
2017-05-22T16:27:40.023Z,33.40
2017-05-22T16:30:09.520Z,33.40
2017-05-22T16:32:38.511Z,33.40
2017-05-22T16:35:07.469Z,33.50
2017-05-22T16:37:36.904Z,32.70
2017-05-22T16:40:05.883Z,33.60
2017-05-22T16:42:34.876Z,33.60
2017-05-22T16:45:04.320Z,34.50
2017-05-22T16:47:33.310Z,33.80
2017-05-22T16:50:02.351Z,33.80
2017-05-22T16:52:31.776Z,33.40
2017-05-22T16:55:00.802Z,33.90
2017-05-22T16:57:29.772Z,34.00
2017-05-22T16:59:59.096Z,34.90
2017-05-22T17:02:28.072Z,33.40
2017-05-22T17:04:57.121Z,32.50
2017-05-22T17:07:26.539Z,33.10
2017-05-22T17:09:55.660Z,32.50
2017-05-22T17:12:23.865Z,32.70
2017-05-22T17:14:53.183Z,33.80
2017-05-22T17:17:22.174Z,35.00
2017-05-22T17:19:51.180Z,35.10
2017-05-22T17:22:20.599Z,34.70
2017-05-22T17:24:49.629Z,34.70
2017-05-22T17:27:18.589Z,35.00
2017-05-22T17:29:48.022Z,35.60
2017-05-22T17:32:16.977Z,35.70
2017-05-22T17:34:46.391Z,36.20
2017-05-22T17:37:15.889Z,35.00
2017-05-22T17:39:44.857Z,35.50
2017-05-22T17:42:13.850Z,35.80
2017-05-22T17:44:43.337Z,34.20
2017-05-22T17:47:12.462Z,34.20
2017-05-22T17:49:41.428Z,34.70
2017-05-22T17:52:10.875Z,32.80
2017-05-22T17:54:40.123Z,31.40
2017-05-22T17:57:09.107Z,32.00
2017-05-22T17:59:38.504Z,32.20
2017-05-22T18:02:07.493Z,32.90
2017-05-22T18:04:36.493Z,34.30
2017-05-22T18:07:05.828Z,34.50
2017-05-22T18:09:34.811Z,34.90
2017-05-22T18:12:03.816Z,35.20
2017-05-22T18:14:33.204Z,34.00
2017-05-22T18:17:02.192Z,34.90
2017-05-22T18:19:31.196Z,34.80
2017-05-22T18:22:00.595Z,36.00
2017-05-22T18:24:29.588Z,36.70
2017-05-22T18:26:58.583Z,38.30
2017-05-22T18:29:27.912Z,38.50
2017-05-22T18:31:56.910Z,40.40
2017-05-22T18:34:25.916Z,40.30
2017-05-22T18:36:55.323Z,41.90
2017-05-22T18:39:24.658Z,41.90
2017-05-22T18:41:53.638Z,41.80
2017-05-22T18:44:23.127Z,43.60
2017-05-22T18:46:52.106Z,42.70
2017-05-22T18:49:21.128Z,44.30
2017-05-22T18:51:50.568Z,44.30
2017-05-22T18:54:19.653Z,43.80
2017-05-22T18:56:48.663Z,44.40
2017-05-22T18:59:18.054Z,44.30
2017-05-22T19:01:47.113Z,44.70
2017-05-22T19:04:16.100Z,44.50
2017-05-22T19:06:45.571Z,45.40
2017-05-22T19:09:14.555Z,45.40
2017-05-22T19:11:43.554Z,46.00
2017-05-22T19:14:12.978Z,47.00
2017-05-22T19:16:41.952Z,45.80
2017-05-22T19:19:10.941Z,46.10
2017-05-22T19:21:40.441Z,46.10
2017-05-22T19:24:09.364Z,47.10
2017-05-22T19:26:38.378Z,46.50
2017-05-22T19:29:07.743Z,46.50
2017-05-22T19:31:36.702Z,47.20
2017-05-22T19:34:05.668Z,48.30
2017-05-22T19:36:35.072Z,51.20
2017-05-22T19:39:04.100Z,52.20
2017-05-22T19:41:33.106Z,53.70
2017-05-22T19:44:02.438Z,53.70
2017-05-22T19:46:31.408Z,55.50
2017-05-22T19:49:00.405Z,56.40
2017-05-22T19:51:29.779Z,57.30
2017-05-22T19:53:58.832Z,57.70
2017-05-22T19:56:27.828Z,57.60
2017-05-22T19:58:57.192Z,58.40
2017-05-22T20:01:26.141Z,59.00
2017-05-22T20:03:55.124Z,59.40
2017-05-22T20:06:23.711Z,59.30
2017-05-22T20:08:52.697Z,59.60
2017-05-22T20:11:21.665Z,60.20
2017-05-22T20:13:51.087Z,60.30
2017-05-22T20:16:20.062Z,60.60
2017-05-22T20:18:48.247Z,60.60
2017-05-22T20:21:17.656Z,60.90
2017-05-22T20:23:46.714Z,61.00
2017-05-22T20:26:15.741Z,61.40
2017-05-22T20:28:45.019Z,61.30
2017-05-22T20:31:13.990Z,60.90
2017-05-22T20:33:42.959Z,61.10
2017-05-22T20:36:12.322Z,60.80
2017-05-22T20:38:41.278Z,61.10
2017-05-22T20:41:10.275Z,61.30
2017-05-22T20:43:39.588Z,62.00
2017-05-22T20:46:08.746Z,61.70
2017-05-22T20:48:37.738Z,61.10
2017-05-22T20:51:07.127Z,60.00
2017-05-22T20:53:36.132Z,60.70
2017-05-22T20:56:04.362Z,61.40
2017-05-22T20:58:33.774Z,60.90
2017-05-22T21:01:02.757Z,60.50
2017-05-22T21:03:31.723Z,60.10
2017-05-22T21:06:01.162Z,60.00
2017-05-22T21:08:30.120Z,59.70
2017-05-22T21:10:59.108Z,59.70
2017-05-22T21:13:28.462Z,60.50
2017-05-22T21:15:57.418Z,60.10
2017-05-22T21:18:26.518Z,60.20
2017-05-22T21:20:55.829Z,60.70
2017-05-22T21:23:24.810Z,61.40
2017-05-22T21:25:53.836Z,62.10
2017-05-22T21:28:23.204Z,61.90
2017-05-22T21:30:52.221Z,62.30
2017-05-22T21:33:21.218Z,61.60
2017-05-22T21:35:50.583Z,60.90
2017-05-22T21:38:19.652Z,61.90
2017-05-22T21:40:51.980Z,62.00
2017-05-22T21:43:22.557Z,62.10
2017-05-22T21:45:51.527Z,61.80
2017-05-22T21:48:20.878Z,61.90
2017-05-22T21:50:49.886Z,63.20
2017-05-22T21:53:18.862Z,62.20
2017-05-22T21:55:48.275Z,61.90
2017-05-22T21:58:17.281Z,63.30
2017-05-22T22:00:46.263Z,63.90
2017-05-22T22:03:15.607Z,63.80
2017-05-22T22:05:44.609Z,62.50
2017-05-22T22:08:13.568Z,64.10
2017-05-22T22:10:42.951Z,63.30
2017-05-22T22:13:11.928Z,63.10
2017-05-22T22:15:40.894Z,64.40
2017-05-22T22:18:10.356Z,63.80
2017-05-22T22:20:39.376Z,64.80
2017-05-22T22:23:08.325Z,65.00
2017-05-22T22:25:37.706Z,64.20
2017-05-22T22:28:06.675Z,63.90
2017-05-22T22:30:35.632Z,64.80
2017-05-22T22:33:05.093Z,64.30
2017-05-22T22:35:34.058Z,64.00
2017-05-22T22:38:03.040Z,65.40
2017-05-22T22:40:32.364Z,65.60
2017-05-22T22:43:01.364Z,65.60
2017-05-22T22:45:30.339Z,67.00
2017-05-22T22:47:59.940Z,66.10
2017-05-22T22:50:28.925Z,65.80
2017-05-22T22:52:57.937Z,65.80
2017-05-22T22:55:27.345Z,66.70
2017-05-22T22:57:55.539Z,66.70
2017-05-22T23:00:24.665Z,66.70
2017-05-22T23:02:54.019Z,66.10
2017-05-22T23:05:23.000Z,66.80
2017-05-22T23:07:51.979Z,66.90
2017-05-22T23:10:21.377Z,66.50
2017-05-22T23:12:50.345Z,66.80
2017-05-22T23:15:19.302Z,66.40
2017-05-22T23:17:48.804Z,67.00
2017-05-22T23:20:17.785Z,67.50
2017-05-22T23:22:46.734Z,67.10
2017-05-22T23:25:16.031Z,67.50
2017-05-22T23:27:45.006Z,67.60
2017-05-22T23:30:13.949Z,68.20
2017-05-22T23:32:43.466Z,68.40
2017-05-22T23:35:12.452Z,68.60
2017-05-22T23:37:41.413Z,68.70
2017-05-22T23:40:10.706Z,67.80
2017-05-22T23:42:39.655Z,68.40
2017-05-22T23:45:08.610Z,68.80
2017-05-22T23:47:37.938Z,69.00
2017-05-22T23:50:06.905Z,69.20
2017-05-22T23:52:35.906Z,68.40
2017-05-22T23:55:05.332Z,68.70
2017-05-22T23:57:34.297Z,68.60
